Time;durP1;ratioP1;P1;durP2;ratioP2;P2;SDS_P1;SDS_P2;PMS_P1;PMS_P2;Temp;Humidity;BMP_temperature;BMP_pressure;BME280_temperature;BME280_humidity;BME280_pressure;Samples;Min_cycle;Max_cycle;Signal;HPM_P1;HPM_P2
2023/03/09 00:00:58;;;;;;;50.80;20.48;;;;;;;6.60;nan;98606.31;4947846;28;20078;-78
2023/03/09 00:03:25;;;;;;;42.28;17.40;;;;;;;6.43;nan;98612.91;4949528;28;20051;-79
2023/03/09 00:06:00;;;;;;;61.03;22.75;;;;;;;6.35;nan;98623.22;4947617;28;20055;-79
2023/03/09 00:08:28;;;;;;;55.28;21.48;;;;;;;6.56;nan;98638.56;4948063;28;20592;-78
2023/03/09 00:10:55;;;;;;;48.92;19.35;;;;;;;6.48;nan;98648.16;4931573;29;20528;-79
2023/03/09 00:13:22;;;;;;;41.78;18.23;;;;;;;6.47;nan;98641.09;4948630;28;20055;-79
2023/03/09 00:15:51;;;;;;;23.58;9.48;;;;;;;6.34;nan;98629.94;4948619;28;20070;-79
2023/03/09 00:18:22;;;;;;;57.25;21.30;;;;;;;6.60;nan;98633.78;4931632;28;20055;-78
2023/03/09 00:20:49;;;;;;;42.95;18.52;;;;;;;6.70;nan;98633.59;4948056;28;20697;-79
2023/03/09 00:23:18;;;;;;;46.55;18.15;;;;;;;6.94;nan;98634.31;4947660;28;20047;-78
2023/03/09 00:25:45;;;;;;;47.53;20.08;;;;;;;6.91;nan;98640.66;4947963;28;20477;-77
2023/03/09 00:28:12;;;;;;;53.80;19.85;;;;;;;6.94;nan;98648.84;4947958;28;20124;-77
2023/03/09 00:30:38;;;;;;;57.05;20.63;;;;;;;6.86;nan;98646.66;4947395;28;20097;-78
2023/03/09 00:33:05;;;;;;;57.72;20.63;;;;;;;7.00;nan;98651.88;4946984;28;20051;-79
2023/03/09 00:35:35;;;;;;;55.15;22.13;;;;;;;6.86;nan;98661.19;4947262;28;20063;-78
2023/03/09 00:38:01;;;;;;;53.05;21.20;;;;;;;6.89;nan;98659.56;4947516;28;20061;-77
2023/03/09 00:40:28;;;;;;;44.78;18.33;;;;;;;-141.00;100.00;68116.28;4947887;28;20046;-78
2023/03/09 00:42:54;;;;;;;39.67;15.15;;;;;;;-141.00;100.00;68116.28;4926995;28;20054;-79
2023/03/09 00:45:24;;;;;;;49.72;20.95;;;;;;;-141.00;100.00;68116.28;4947185;28;20055;-76
2023/03/09 00:47:50;;;;;;;43.00;18.77;;;;;;;-141.00;100.00;68116.28;4947208;28;20059;-80
2023/03/09 00:50:17;;;;;;;37.58;14.45;;;;;;;-141.00;100.00;68116.28;4947654;28;20059;-75
2023/03/09 00:52:43;;;;;;;46.83;17.52;;;;;;;-141.00;100.00;68116.28;4946995;28;20055;-78
2023/03/09 00:55:10;;;;;;;52.17;18.40;;;;;;;-141.00;100.00;68116.28;4947449;28;20051;-78
2023/03/09 00:57:37;;;;;;;46.45;17.00;;;;;;;-141.00;100.00;68116.28;4946098;28;20051;-78
2023/03/09 01:00:06;;;;;;;42.88;17.45;;;;;;;-141.00;100.00;68116.28;4943303;28;20055;-79
2023/03/09 01:02:33;;;;;;;42.55;17.30;;;;;;;-141.00;100.00;68116.28;4944516;28;20134;-77
2023/03/09 01:04:59;;;;;;;35.42;12.68;;;;;;;-141.00;100.00;68116.28;4946746;28;20047;-78
2023/03/09 01:07:28;;;;;;;45.33;16.60;;;;;;;-141.00;100.00;68116.28;4948505;28;20138;-80
2023/03/09 01:09:55;;;;;;;46.45;17.85;;;;;;;-141.00;100.00;68116.28;4947279;28;20506;-78
2023/03/09 01:12:21;;;;;;;25.42;8.90;;;;;;;-141.00;100.00;68116.28;4948218;28;20055;-78
2023/03/09 01:14:50;;;;;;;48.25;18.73;;;;;;;-141.00;100.00;68116.28;4947495;28;20070;-79
2023/03/09 01:17:16;;;;;;;42.58;17.42;;;;;;;-141.00;100.00;68116.28;4947129;28;20184;-78
2023/03/09 01:19:43;;;;;;;47.35;19.48;;;;;;;-141.00;100.00;68116.28;4930233;28;20069;-78
2023/03/09 01:22:09;;;;;;;38.60;17.08;;;;;;;-141.00;100.00;68116.28;4947266;28;20055;-78
2023/03/09 01:24:36;;;;;;;39.88;15.80;;;;;;;-141.00;100.00;68116.28;4946731;28;20051;-79
2023/03/09 01:27:02;;;;;;;37.92;14.65;;;;;;;-141.00;100.00;68116.28;4946850;28;20043;-78
2023/03/09 01:29:29;;;;;;;28.52;10.93;;;;;;;-141.00;100.00;68116.28;4947534;28;20057;-79
2023/03/09 01:31:56;;;;;;;43.83;18.27;;;;;;;-141.00;100.00;68116.28;4945952;28;20159;-79
2023/03/09 01:34:22;;;;;;;42.97;17.23;;;;;;;-141.00;100.00;68116.28;4946783;28;20047;-78
2023/03/09 01:36:49;;;;;;;40.42;16.25;;;;;;;-141.00;100.00;68116.28;4946860;28;20522;-79
2023/03/09 01:39:16;;;;;;;38.35;13.90;;;;;;;-141.00;100.00;68116.28;4947543;28;20047;-78
2023/03/09 01:41:42;;;;;;;45.85;17.65;;;;;;;-141.00;100.00;68116.28;4930636;29;20055;-77
2023/03/09 01:44:12;;;;;;;40.33;16.15;;;;;;;-141.00;100.00;68116.28;4948077;28;20055;-80
2023/03/09 01:46:44;;;;;;;45.97;17.88;;;;;;;-141.00;100.00;68116.28;4946842;28;20424;-78
2023/03/09 01:49:43;;;;;;;41.72;17.80;;;;;;;-141.00;100.00;68116.28;4947079;28;20502;-78
2023/03/09 01:52:15;;;;;;;39.45;17.00;;;;;;;-141.00;100.00;68116.28;4928463;28;20051;-78
2023/03/09 01:54:46;;;;;;;44.47;17.13;;;;;;;-141.00;100.00;68116.28;4946772;28;20051;-78
2023/03/09 01:57:15;;;;;;;40.03;15.73;;;;;;;-141.00;100.00;68116.28;4948850;28;20069;-80
2023/03/09 01:59:44;;;;;;;44.97;18.10;;;;;;;-141.00;100.00;68116.28;4947172;28;20055;-80
2023/03/09 02:02:12;;;;;;;40.40;17.35;;;;;;;-141.00;100.00;68116.28;4947557;28;21553;-78
2023/03/09 02:04:47;;;;;;;42.95;17.33;;;;;;;-141.00;100.00;68116.28;4929898;28;20043;-78
2023/03/09 02:07:15;;;;;;;;;;;;;;;-141.00;100.00;68116.28;4930614;28;20058;-78
2023/03/09 02:09:58;;;;;;;44.28;17.17;;;;;;;-141.00;100.00;68116.28;4948112;28;20618;-81
2023/03/09 02:12:26;;;;;;;36.70;12.40;;;;;;;-141.00;100.00;68116.28;4929781;29;20058;-79
2023/03/09 02:14:52;;;;;;;42.67;15.65;;;;;;;-141.00;100.00;68116.28;4946215;28;20525;-81
2023/03/09 02:17:19;;;;;;;48.50;18.77;;;;;;;-141.00;100.00;68116.28;4929000;29;20055;-79
2023/03/09 02:20:04;;;;;;;43.08;15.35;;;;;;;-141.00;100.00;68116.28;4946756;28;20134;-79
2023/03/09 02:22:33;;;;;;;;;;;;;;;-141.00;100.00;68116.28;4944273;28;20055;-78
2023/03/09 02:25:05;;;;;;;41.63;17.17;;;;;;;-141.00;100.00;68116.28;4946849;28;19927;-79
2023/03/09 02:27:33;;;;;;;39.30;16.33;;;;;;;-141.00;100.00;68116.28;4946063;28;20047;-77
2023/03/09 02:30:00;;;;;;;43.90;18.00;;;;;;;-141.00;100.00;68116.28;4947111;28;20055;-79
2023/03/09 02:32:29;;;;;;;47.90;17.52;;;;;;;-141.00;100.00;68116.28;4947189;28;20062;-80
2023/03/09 02:34:56;;;;;;;35.78;14.38;;;;;;;-141.00;100.00;68116.28;4947106;28;20043;-81
2023/03/09 02:37:24;;;;;;;50.25;17.80;;;;;;;-141.00;100.00;68116.28;4947518;28;20043;-79
2023/03/09 02:39:55;;;;;;;45.75;17.92;;;;;;;-141.00;100.00;68116.28;4948089;28;20058;-80
2023/03/09 02:42:21;;;;;;;46.42;18.10;;;;;;;-141.00;100.00;68116.28;4931418;28;20055;-80
2023/03/09 02:44:49;;;;;;;46.97;17.27;;;;;;;-141.00;100.00;68116.28;4951281;28;20039;-81
2023/03/09 02:47:20;;;;;;;52.33;18.38;;;;;;;-141.00;100.00;68116.28;4951924;28;20115;-80
2023/03/09 02:49:47;;;;;;;44.85;16.00;;;;;;;-141.00;100.00;68116.28;4952367;28;20417;-80
2023/03/09 02:52:14;;;;;;;43.20;18.75;;;;;;;-141.00;100.00;68116.28;4952013;28;20051;-81
2023/03/09 02:54:40;;;;;;;42.75;16.15;;;;;;;-141.00;100.00;68116.28;4954502;28;20055;-81
2023/03/09 02:57:07;;;;;;;49.70;18.95;;;;;;;-141.00;100.00;68116.28;4956058;28;20070;-81
2023/03/09 02:59:33;;;;;;;58.47;20.88;;;;;;;-141.00;100.00;68116.28;4968494;28;20644;-80
2023/03/09 03:02:00;;;;;;;53.50;18.95;;;;;;;-141.00;100.00;68116.28;4951561;28;20047;-81
2023/03/09 03:04:26;;;;;;;48.78;18.98;;;;;;;-141.00;100.00;68116.28;4963626;28;20043;-81
2023/03/09 03:06:53;;;;;;;54.28;20.75;;;;;;;-141.00;100.00;68116.28;4953752;29;20075;-82
2023/03/09 03:09:19;;;;;;;50.28;19.58;;;;;;;-141.00;100.00;68116.28;4971097;28;20055;-82
2023/03/09 03:11:46;;;;;;;49.10;19.33;;;;;;;-141.00;100.00;68116.28;4973357;28;20057;-82
2023/03/09 03:14:12;;;;;;;55.05;20.50;;;;;;;-141.00;100.00;68116.28;4951814;29;20082;-82
2023/03/09 03:16:39;;;;;;;48.30;17.92;;;;;;;-141.00;100.00;68116.28;4970842;28;20052;-82
2023/03/09 03:19:06;;;;;;;56.45;21.30;;;;;;;-141.00;100.00;68116.28;4971108;28;20062;-82
2023/03/09 03:21:33;;;;;;;46.97;18.20;;;;;;;-141.00;100.00;68116.28;4972878;28;20046;-83
2023/03/09 03:24:00;;;;;;;52.58;19.15;;;;;;;-141.00;100.00;68116.28;4971062;28;20047;-82
2023/03/09 03:26:26;;;;;;;49.53;19.63;;;;;;;-141.00;100.00;68116.28;4967603;28;20444;-82
2023/03/09 03:28:53;;;;;;;49.00;19.65;;;;;;;-141.00;100.00;68116.28;4966621;28;20069;-82
2023/03/09 03:31:19;;;;;;;48.75;19.27;;;;;;;-141.00;100.00;68116.28;4969498;28;20080;-83
2023/03/09 03:33:46;;;;;;;57.60;22.23;;;;;;;-141.00;100.00;68116.28;4968409;28;20115;-81
2023/03/09 03:36:13;;;;;;;50.58;19.33;;;;;;;-141.00;100.00;68116.28;4964907;28;20047;-80
2023/03/09 03:38:40;;;;;;;54.05;18.80;;;;;;;-141.00;100.00;68116.28;4967509;28;20053;-83
2023/03/09 03:41:07;;;;;;;49.17;19.45;;;;;;;-141.00;100.00;68116.28;4962479;28;20058;-82
2023/03/09 03:43:33;;;;;;;57.60;21.50;;;;;;;-141.00;100.00;68116.28;4966840;28;20043;-80
2023/03/09 03:46:00;;;;;;;54.42;19.65;;;;;;;-141.00;100.00;68116.28;4964342;28;20058;-82
2023/03/09 03:48:26;;;;;;;54.67;22.33;;;;;;;-141.00;100.00;68116.28;4964363;28;20143;-80
2023/03/09 03:50:53;;;;;;;54.47;20.95;;;;;;;-141.00;100.00;68116.28;4962312;28;20681;-80
2023/03/09 03:53:19;;;;;;;53.65;19.90;;;;;;;-141.00;100.00;68116.28;4962320;28;20062;-82
2023/03/09 03:55:46;;;;;;;53.63;19.27;;;;;;;-141.00;100.00;68116.28;4959770;28;20482;-80
2023/03/09 03:58:12;;;;;;;58.70;21.13;;;;;;;-141.00;100.00;68116.28;4958024;28;20050;-81
2023/03/09 04:00:39;;;;;;;57.05;21.58;;;;;;;-141.00;100.00;68116.28;4960913;28;20058;-82
2023/03/09 04:03:06;;;;;;;55.72;20.45;;;;;;;-141.00;100.00;68116.28;4961468;28;20051;-82
2023/03/09 04:05:33;;;;;;;61.45;22.45;;;;;;;-141.00;100.00;68116.28;4971672;28;20110;-80
2023/03/09 04:07:59;;;;;;;60.67;22.08;;;;;;;-141.00;100.00;68116.28;4975347;28;20051;-85
2023/03/09 04:10:26;;;;;;;59.55;21.50;;;;;;;-141.00;100.00;68116.28;4968704;28;20051;-83
2023/03/09 04:12:52;;;;;;;58.30;22.20;;;;;;;-141.00;100.00;68116.28;4969379;28;20055;-81
2023/03/09 04:15:19;;;;;;;55.83;21.85;;;;;;;-141.00;100.00;68116.28;4965758;28;20053;-81
2023/03/09 04:17:47;;;;;;;58.78;23.02;;;;;;;-141.00;100.00;68116.28;4972592;28;20090;-81
2023/03/09 04:20:14;;;;;;;67.15;23.55;;;;;;;-141.00;100.00;68116.28;4967220;28;20058;-84
2023/03/09 04:22:41;;;;;;;52.75;21.02;;;;;;;-141.00;100.00;68116.28;4974310;28;20078;-83
2023/03/09 04:25:08;;;;;;;62.55;21.90;;;;;;;-141.00;100.00;68116.28;4977898;28;20042;-83
2023/03/09 04:27:35;;;;;;;59.97;20.40;;;;;;;-141.00;100.00;68116.28;4970693;28;20067;-86
2023/03/09 04:30:01;;;;;;;61.15;23.13;;;;;;;-141.00;100.00;68116.28;4971274;28;20051;-80
2023/03/09 04:32:28;;;;;;;59.70;22.25;;;;;;;-141.00;100.00;68116.28;4966257;28;20150;-82
2023/03/09 04:34:54;;;;;;;58.65;22.98;;;;;;;-141.00;100.00;68116.28;4972544;28;20446;-83
2023/03/09 04:37:21;;;;;;;67.55;23.45;;;;;;;-141.00;100.00;68116.28;4958606;28;20051;-81
2023/03/09 04:39:47;;;;;;;60.45;23.02;;;;;;;-141.00;100.00;68116.28;4956298;28;20063;-82
2023/03/09 04:42:14;;;;;;;56.53;21.27;;;;;;;-141.00;100.00;68116.28;4955291;28;20051;-81
2023/03/09 04:44:40;;;;;;;69.43;22.80;;;;;;;-141.00;100.00;68116.28;4954027;28;20047;-83
2023/03/09 04:47:10;;;;;;;64.85;24.30;;;;;;;-141.00;100.00;68116.28;4956341;28;20062;-84
2023/03/09 04:49:37;;;;;;;62.72;22.20;;;;;;;-141.00;100.00;68116.28;4959942;28;20133;-82
2023/03/09 04:52:03;;;;;;;60.55;21.88;;;;;;;-141.00;100.00;68116.28;4958121;28;20047;-81
2023/03/09 04:54:30;;;;;;;52.85;19.52;;;;;;;-141.00;100.00;68116.28;4956001;28;20051;-81
2023/03/09 04:56:56;;;;;;;61.22;24.83;;;;;;;-141.00;100.00;68116.28;4965643;28;20065;-81
2023/03/09 04:59:23;;;;;;;68.50;23.27;;;;;;;-141.00;100.00;68116.28;4955591;28;20051;-81
2023/03/09 05:01:49;;;;;;;67.53;23.77;;;;;;;-141.00;100.00;68116.28;4954907;28;20051;-80
2023/03/09 05:04:18;;;;;;;60.38;22.25;;;;;;;-141.00;100.00;68116.28;4960877;28;20051;-82
2023/03/09 05:06:46;;;;;;;69.30;24.17;;;;;;;-141.00;100.00;68116.28;4954785;28;20055;-84
2023/03/09 05:09:13;;;;;;;64.10;23.48;;;;;;;-141.00;100.00;68116.28;4955856;28;20131;-82
2023/03/09 05:11:41;;;;;;;63.97;24.55;;;;;;;-141.00;100.00;68116.28;4956710;28;20047;-82
2023/03/09 05:14:08;;;;;;;71.03;25.38;;;;;;;-141.00;100.00;68116.28;4969785;28;20061;-82
2023/03/09 05:16:35;;;;;;;69.35;25.17;;;;;;;-141.00;100.00;68116.28;4963130;28;20047;-82
2023/03/09 05:19:01;;;;;;;57.40;20.60;;;;;;;-141.00;100.00;68116.28;4971244;28;20441;-82
2023/03/09 05:21:28;;;;;;;66.72;23.98;;;;;;;-141.00;100.00;68116.28;4964822;28;20059;-81
2023/03/09 05:23:54;;;;;;;77.70;24.00;;;;;;;-141.00;100.00;68116.28;4959251;28;20055;-82
2023/03/09 05:26:21;;;;;;;76.32;24.05;;;;;;;-141.00;100.00;68116.28;4961423;28;20123;-83
2023/03/09 05:28:48;;;;;;;75.13;25.60;;;;;;;-141.00;100.00;68116.28;4969502;28;20504;-81
2023/03/09 05:31:15;;;;;;;69.55;23.00;;;;;;;-141.00;100.00;68116.28;4962148;28;20122;-82
2023/03/09 05:33:42;;;;;;;64.70;23.55;;;;;;;-141.00;100.00;68116.28;4960814;28;20117;-83
2023/03/09 05:36:20;;;;;;;79.63;26.92;;;;;;;-141.00;100.00;68116.28;4958987;28;20392;-83
2023/03/09 05:38:50;;;;;;;67.05;22.67;;;;;;;-141.00;100.00;68116.28;4954064;29;20114;-84
2023/03/09 05:41:32;;;;;;;67.45;22.42;;;;;;;-141.00;100.00;68116.28;4958553;28;20062;-84
2023/03/09 05:44:06;;;;;;;68.72;21.75;;;;;;;-141.00;100.00;68116.28;4956845;28;20773;-82
2023/03/09 05:46:33;;;;;;;76.07;25.30;;;;;;;-141.00;100.00;68116.28;4967193;28;20056;-82
2023/03/09 05:49:00;;;;;;;84.00;28.52;;;;;;;-141.00;100.00;68116.28;4966130;28;20066;-82
2023/03/09 05:51:27;;;;;;;66.45;21.67;;;;;;;-141.00;100.00;68116.28;4961996;28;20055;-84
2023/03/09 05:53:53;;;;;;;66.53;24.38;;;;;;;-141.00;100.00;68116.28;4964015;28;20057;-80
2023/03/09 05:56:19;;;;;;;71.07;24.10;;;;;;;-141.00;100.00;68116.28;4964569;28;20086;-83
2023/03/09 05:58:50;;;;;;;72.82;25.85;;;;;;;-141.00;100.00;68116.28;4973925;28;20054;-80
2023/03/09 06:01:25;;;;;;;68.57;24.80;;;;;;;-141.00;100.00;68116.28;4963266;28;20213;-86
2023/03/09 06:03:54;;;;;;;82.80;26.20;;;;;;;-141.00;100.00;68116.28;4963467;28;20146;-80
2023/03/09 06:06:22;;;;;;;70.55;26.52;;;;;;;-141.00;100.00;68116.28;4967505;28;20122;-83
2023/03/09 06:08:49;;;;;;;69.00;26.38;;;;;;;-141.00;100.00;68116.28;4966173;28;20166;-80
2023/03/09 06:11:15;;;;;;;65.53;24.23;;;;;;;-141.00;100.00;68116.28;4966636;28;20043;-80
2023/03/09 06:13:42;;;;;;;78.30;28.08;;;;;;;-141.00;100.00;68116.28;4964689;28;20130;-83
2023/03/09 06:16:18;;;;;;;72.68;24.83;;;;;;;-141.00;100.00;68116.28;4966844;28;20130;-83
2023/03/09 06:18:46;;;;;;;74.55;25.45;;;;;;;-141.00;100.00;68116.28;4963698;28;20048;-80
2023/03/09 06:21:13;;;;;;;78.03;27.02;;;;;;;-141.00;100.00;68116.28;4967064;28;20058;-82
2023/03/09 06:23:40;;;;;;;75.53;24.88;;;;;;;-141.00;100.00;68116.28;4950451;29;20047;-82
2023/03/09 06:26:09;;;;;;;69.25;26.52;;;;;;;-141.00;100.00;68116.28;4969686;28;20678;-84
2023/03/09 06:28:36;;;;;;;75.18;26.30;;;;;;;-141.00;100.00;68116.28;4970112;28;20079;-83
2023/03/09 06:31:12;;;;;;;87.05;26.95;;;;;;;-141.00;100.00;68116.28;4971368;28;20055;-82
2023/03/09 06:33:40;;;;;;;71.20;25.95;;;;;;;-141.00;100.00;68116.28;4966623;28;20058;-81
2023/03/09 06:36:09;;;;;;;78.40;26.73;;;;;;;-141.00;100.00;68116.28;4953416;28;20054;-82
2023/03/09 06:38:36;;;;;;;74.03;26.02;;;;;;;-141.00;100.00;68116.28;4967927;28;20073;-82
2023/03/09 06:41:03;;;;;;;76.43;27.38;;;;;;;-141.00;100.00;68116.28;4965648;28;20054;-82
2023/03/09 06:43:29;;;;;;;80.68;27.75;;;;;;;-141.00;100.00;68116.28;4964113;29;20100;-82
2023/03/09 06:45:56;;;;;;;61.92;24.17;;;;;;;-141.00;100.00;68116.28;4958238;28;20468;-81
2023/03/09 06:48:23;;;;;;;72.75;26.45;;;;;;;-141.00;100.00;68116.28;4958878;28;20103;-81
2023/03/09 06:50:49;;;;;;;78.60;26.67;;;;;;;-141.00;100.00;68116.28;4958699;28;20065;-82
2023/03/09 06:53:16;;;;;;;73.97;27.05;;;;;;;-141.00;100.00;68116.28;4955963;28;20078;-81
2023/03/09 06:55:43;;;;;;;73.63;23.95;;;;;;;-141.00;100.00;68116.28;4969731;28;20067;-83
2023/03/09 06:58:10;;;;;;;72.90;26.63;;;;;;;-141.00;100.00;68116.28;4969120;28;20138;-80
2023/03/09 07:00:40;;;;;;;71.97;25.63;;;;;;;-141.00;100.00;68116.28;4950203;28;20051;-83
2023/03/09 07:03:12;;;;;;;75.07;25.25;;;;;;;-141.00;100.00;68116.28;4960696;28;20135;-82
2023/03/09 07:05:42;;;;;;;59.75;21.60;;;;;;;-141.00;100.00;68116.28;4959660;29;20064;-81
2023/03/09 07:08:09;;;;;;;76.78;26.90;;;;;;;-141.00;100.00;68116.28;4970685;28;20069;-80
2023/03/09 07:10:36;;;;;;;80.55;27.23;;;;;;;-141.00;100.00;68116.28;4972931;29;20043;-82
2023/03/09 07:13:03;;;;;;;81.45;27.23;;;;;;;-141.00;100.00;68116.28;4971540;28;20058;-81
2023/03/09 07:15:30;;;;;;;76.07;26.55;;;;;;;-141.00;100.00;68116.28;4965318;28;20051;-82
2023/03/09 07:17:56;;;;;;;77.28;24.20;;;;;;;-141.00;100.00;68116.28;4965276;28;20061;-82
2023/03/09 07:20:24;;;;;;;75.45;26.95;;;;;;;-141.00;100.00;68116.28;4957973;28;20057;-81
2023/03/09 07:22:51;;;;;;;68.63;24.65;;;;;;;-141.00;100.00;68116.28;4960717;28;20057;-82
2023/03/09 07:25:18;;;;;;;77.22;25.70;;;;;;;-141.00;100.00;68116.28;4955141;28;20125;-82
2023/03/09 07:27:44;;;;;;;82.63;28.98;;;;;;;-141.00;100.00;68116.28;4963391;28;20059;-80
2023/03/09 07:30:11;;;;;;;75.72;27.95;;;;;;;-141.00;100.00;68116.28;4963237;28;20058;-81
2023/03/09 07:32:37;;;;;;;76.68;26.23;;;;;;;-141.00;100.00;68116.28;4963600;28;20133;-82
2023/03/09 07:35:05;;;;;;;81.22;29.17;;;;;;;-141.00;100.00;68116.28;4964783;28;20055;-82
2023/03/09 07:37:31;;;;;;;73.40;25.13;;;;;;;-141.00;100.00;68116.28;4960890;28;20069;-84
2023/03/09 07:39:58;;;;;;;76.00;26.50;;;;;;;-141.00;100.00;68116.28;4963840;28;20047;-81
2023/03/09 07:42:26;;;;;;;77.60;26.60;;;;;;;-141.00;100.00;68116.28;4977460;28;20051;-84
2023/03/09 07:45:03;;;;;;;72.70;25.67;;;;;;;-141.00;100.00;68116.28;4967661;29;20103;-84
2023/03/09 07:47:31;;;;;;;68.20;24.48;;;;;;;-141.00;100.00;68116.28;4962398;29;20069;-85
2023/03/09 07:49:58;;;;;;;84.10;28.48;;;;;;;-141.00;100.00;68116.28;4973954;28;20035;-87
2023/03/09 07:52:30;;;;;;;68.10;24.48;;;;;;;-141.00;100.00;68116.28;4975442;28;20094;-78
2023/03/09 07:55:01;;;;;;;92.35;29.10;;;;;;;-141.00;100.00;68116.28;4942428;28;20061;-78
2023/03/09 07:57:32;;;;;;;84.47;28.08;;;;;;;-141.00;100.00;68116.28;4965951;28;20126;-82
2023/03/09 07:59:59;;;;;;;80.55;26.58;;;;;;;-141.00;100.00;68116.28;4961289;28;20150;-83
2023/03/09 08:02:25;;;;;;;89.75;28.92;;;;;;;-141.00;100.00;68116.28;4969847;28;20082;-85
2023/03/09 08:04:52;;;;;;;72.45;24.27;;;;;;;-141.00;100.00;68116.28;4958990;28;20061;-82
2023/03/09 08:07:19;;;;;;;76.30;25.80;;;;;;;-141.00;100.00;68116.28;4961402;28;20050;-82
2023/03/09 08:09:45;;;;;;;82.95;26.30;;;;;;;-141.00;100.00;68116.28;4965273;28;20059;-82
2023/03/09 08:12:12;;;;;;;82.82;28.60;;;;;;;-141.00;100.00;68116.28;4960315;28;20500;-82
2023/03/09 08:14:39;;;;;;;80.45;28.17;;;;;;;-141.00;100.00;68116.28;4967337;28;20059;-84
2023/03/09 08:17:06;;;;;;;84.47;28.55;;;;;;;-141.00;100.00;68116.28;4970037;28;20054;-83
2023/03/09 08:19:32;;;;;;;87.47;26.77;;;;;;;-141.00;100.00;68116.28;4965515;28;20051;-81
2023/03/09 08:21:59;;;;;;;82.88;27.27;;;;;;;-141.00;100.00;68116.28;4966505;28;20101;-79
2023/03/09 08:24:25;;;;;;;84.57;26.77;;;;;;;-141.00;100.00;68116.28;4958910;28;20047;-83
2023/03/09 08:26:52;;;;;;;79.70;25.75;;;;;;;-141.00;100.00;68116.28;4963108;28;20051;-80
2023/03/09 08:29:18;;;;;;;87.57;27.83;;;;;;;-141.00;100.00;68116.28;4951456;28;20051;-81
2023/03/09 08:31:45;;;;;;;82.70;28.55;;;;;;;-141.00;100.00;68116.28;4952357;28;20058;-81
2023/03/09 08:34:12;;;;;;;83.07;28.02;;;;;;;-141.00;100.00;68116.28;4960811;28;20063;-82
2023/03/09 08:36:38;;;;;;;80.85;27.55;;;;;;;-141.00;100.00;68116.28;4962478;28;20054;-82
2023/03/09 08:39:05;;;;;;;82.68;28.25;;;;;;;-141.00;100.00;68116.28;4969661;28;20394;-80
2023/03/09 08:41:31;;;;;;;76.32;27.73;;;;;;;-141.00;100.00;68116.28;4965336;28;20130;-81
2023/03/09 08:43:58;;;;;;;79.82;28.73;;;;;;;-141.00;100.00;68116.28;4963748;28;20057;-81
2023/03/09 08:46:25;;;;;;;80.95;28.33;;;;;;;-141.00;100.00;68116.28;4973788;28;20073;-82
2023/03/09 08:48:52;;;;;;;77.18;27.15;;;;;;;-141.00;100.00;68116.28;4978106;28;20027;-82
2023/03/09 08:51:18;;;;;;;83.82;27.83;;;;;;;-141.00;100.00;68116.28;4971955;28;20043;-81
2023/03/09 08:53:45;;;;;;;85.07;28.17;;;;;;;-141.00;100.00;68116.28;4960965;29;20173;-82
2023/03/09 08:56:12;;;;;;;90.97;30.10;;;;;;;-141.00;100.00;68116.28;4960318;28;20106;-81
2023/03/09 08:58:39;;;;;;;81.03;28.33;;;;;;;-141.00;100.00;68116.28;4965174;28;20055;-81
2023/03/09 09:01:08;;;;;;;89.13;28.55;;;;;;;-141.00;100.00;68116.28;4958688;28;20051;-81
2023/03/09 09:03:35;;;;;;;79.07;27.58;;;;;;;-141.00;100.00;68116.28;4967716;28;20053;-79
2023/03/09 09:06:11;;;;;;;89.65;29.88;;;;;;;-141.00;100.00;68116.28;4967221;28;20039;-78
2023/03/09 09:08:38;;;;;;;77.35;26.27;;;;;;;-141.00;100.00;68116.28;4946688;28;20047;-81
2023/03/09 09:11:10;;;;;;;75.40;27.75;;;;;;;-141.00;100.00;68116.28;4953163;28;20062;-81
2023/03/09 09:13:37;;;;;;;81.57;26.88;;;;;;;-141.00;100.00;68116.28;4937724;29;20075;-81
2023/03/09 09:16:05;;;;;;;88.55;27.83;;;;;;;-141.00;100.00;68116.28;4957924;28;20048;-81
2023/03/09 09:18:33;;;;;;;81.47;27.67;;;;;;;-141.00;100.00;68116.28;4965841;28;20070;-81
2023/03/09 09:21:08;;;;;;;92.90;30.35;;;;;;;-141.00;100.00;68116.28;4960690;28;20099;-80
2023/03/09 09:23:35;;;;;;;84.07;29.13;;;;;;;-141.00;100.00;68116.28;4965126;28;20055;-81
2023/03/09 09:26:03;;;;;;;71.25;25.33;;;;;;;-141.00;100.00;68116.28;4947340;28;20071;-84
2023/03/09 09:28:30;;;;;;;73.68;25.67;;;;;;;-141.00;100.00;68116.28;4964634;28;20051;-82
2023/03/09 09:30:59;;;;;;;92.10;28.30;;;;;;;-141.00;100.00;68116.28;4964895;28;20141;-81
2023/03/09 09:33:31;;;;;;;79.07;25.73;;;;;;;-141.00;100.00;68116.28;4952002;28;20425;-82
2023/03/09 09:36:08;;;;;;;91.85;28.85;;;;;;;-141.00;100.00;68116.28;4967306;28;20043;-85
2023/03/09 09:38:35;;;;;;;95.53;29.02;;;;;;;-141.00;100.00;68116.28;4967103;28;20112;-83
2023/03/09 09:41:07;;;;;;;71.97;25.50;;;;;;;-141.00;100.00;68116.28;4965832;28;20043;-82
2023/03/09 09:43:35;;;;;;;78.90;27.23;;;;;;;-141.00;100.00;68116.28;4955486;28;20051;-82
2023/03/09 09:46:03;;;;;;;59.53;20.05;;;;;;;9.87;nan;99340.63;4954418;28;20051;-82
2023/03/09 09:48:32;;;;;;;80.70;28.42;;;;;;;9.86;nan;99354.88;4952168;28;20059;-80
2023/03/09 09:51:05;;;;;;;40.22;13.35;;;;;;;9.71;nan;99365.41;4955435;28;20106;-84
2023/03/09 09:53:47;;;;;;;86.43;28.20;;;;;;;9.90;nan;99370.19;4962935;28;20055;-82
2023/03/09 09:56:18;;;;;;;95.32;28.10;;;;;;;9.89;nan;99376.88;4958812;28;20055;-85
2023/03/09 09:59:01;;;;;;;86.13;29.58;;;;;;;9.84;nan;99371.88;4963231;28;20051;-82
2023/03/09 10:01:56;;;;;;;88.93;29.25;;;;;;;9.79;nan;99360.53;4955809;28;20528;-82
2023/03/09 10:04:31;;;;;;;77.93;26.90;;;;;;;9.84;nan;99377.41;4933864;28;20074;-84
2023/03/09 10:07:03;;;;;;;81.70;25.42;;;;;;;9.53;nan;99375.22;4952811;28;20055;-81
2023/03/09 10:09:33;;;;;;;60.35;21.10;;;;;;;9.32;nan;99372.84;4969407;28;20098;-81
2023/03/09 10:12:09;;;;;;;98.32;30.45;;;;;;;9.76;nan;99384.25;4970210;28;20090;-79
2023/03/09 10:15:06;;;;;;;104.78;30.75;;;;;;;9.93;nan;99391.41;4947782;29;20081;-81
2023/03/09 10:17:41;;;;;;;90.70;28.80;;;;;;;10.08;nan;99395.50;4939776;29;20055;-81
2023/03/09 10:20:20;;;;;;;86.13;25.30;;;;;;;9.84;nan;99377.41;4958914;28;20051;-82
2023/03/09 10:22:51;;;;;;;98.60;30.73;;;;;;;9.76;nan;99378.72;4956705;28;20047;-81
2023/03/09 10:25:20;;;;;;;96.18;30.23;;;;;;;9.89;nan;99376.88;4948975;29;20074;-80
2023/03/09 10:28:00;;;;;;;94.50;27.83;;;;;;;10.01;nan;99384.56;4955379;28;20102;-82
2023/03/09 10:30:36;;;;;;;97.13;31.75;;;;;;;10.08;nan;99373.38;4957540;28;20062;-82
2023/03/09 10:33:12;;;;;;;87.22;28.65;;;;;;;10.12;nan;99385.16;4958523;28;20094;-80
2023/03/09 10:36:07;;;;;;;94.10;30.27;;;;;;;10.28;nan;99403.78;4958574;28;20077;-81
2023/03/09 10:38:38;;;;;;;109.70;32.17;;;;;;;10.24;nan;99414.13;4956876;29;20194;-85
2023/03/09 10:41:13;;;;;;;107.35;31.48;;;;;;;10.18;nan;99413.06;4957771;28;20055;-82
2023/03/09 10:43:40;;;;;;;87.88;30.95;;;;;;;10.11;nan;99419.53;4958867;28;20066;-82
2023/03/09 10:46:13;;;;;;;72.80;24.05;;;;;;;9.96;nan;99415.44;4958232;28;20051;-81
2023/03/09 10:48:41;;;;;;;101.40;32.28;;;;;;;10.09;nan;99407.31;4948512;29;20047;-82
2023/03/09 10:51:27;;;;;;;102.35;33.10;;;;;;;10.15;nan;99413.91;4957133;28;20051;-83
2023/03/09 10:53:56;;;;;;;57.88;21.33;;;;;;;10.10;nan;99423.47;4958333;29;20098;-83
2023/03/09 10:56:27;;;;;;;107.65;34.38;;;;;;;10.15;nan;99428.50;4956663;28;20595;-85
2023/03/09 10:59:06;;;;;;;106.43;33.60;;;;;;;10.05;nan;99431.44;4954858;29;20470;-84
2023/03/09 11:01:35;;;;;;;93.15;32.25;;;;;;;10.24;nan;99442.56;4963039;29;20110;-81
2023/03/09 11:04:22;;;;;;;100.47;32.90;;;;;;;10.27;nan;99440.91;4972472;28;20153;-84
2023/03/09 11:07:28;;;;;;;57.78;22.75;;;;;;;9.90;nan;99442.00;4953336;29;20145;-83
2023/03/09 11:09:55;;;;;;;75.95;24.58;;;;;;;10.24;nan;99442.56;4914885;28;20079;-81